CES6272 ZBHH-ZLXY
Flight info
| Callsign | CES6272 |
|---|---|
| Flight time | 1h 24m |
| Altitude | 23600 |
| Route | K0826S1160 IBARO8ZD IBARO W47 LOVRA LOVRA1W |
| Aircraft | A319/M-SDE3FGHIRWY/LB1 |
Departure
| Time | 2026-05-09 10:17 |
|---|---|
| Airport | Hohhot Baita International Airport (ZBHH) |
Arrival
| Time | 2026-05-09 11:41 |
|---|---|
| Airport | Xi'an Xianyang International Airport (ZLXY) |
| Time | Latitude | Longitude | Altitude | Speed | Heading |
|---|---|---|---|---|---|
| 2026-05-09 09:53 | 40.85306 | 111.81541 | 3534 ft | 0 kts | 343° |
| 2026-05-09 10:06 | 40.85304 | 111.81542 | 3535 ft | 3 kts | 343° |
| 2026-05-09 10:06 | 40.85285 | 111.81550 | 3535 ft | 4 kts | 344° |
| 2026-05-09 10:07 | 40.85273 | 111.81555 | 3535 ft | 2 kts | 340° |
| 2026-05-09 10:07 | 40.85259 | 111.81559 | 3535 ft | 2 kts | 341° |
| 2026-05-09 10:07 | 40.85245 | 111.81564 | 3535 ft | 2 kts | 351° |
| 2026-05-09 10:07 | 40.85233 | 111.81563 | 3535 ft | 2 kts | 33° |
| 2026-05-09 10:08 | 40.85226 | 111.81553 | 3535 ft | 2 kts | 71° |
| 2026-05-09 10:08 | 40.85223 | 111.81542 | 3534 ft | 0 kts | 72° |
| 2026-05-09 10:10 | 40.85227 | 111.81558 | 3534 ft | 4 kts | 72° |
| 2026-05-09 10:10 | 40.85240 | 111.81615 | 3534 ft | 7 kts | 72° |
| 2026-05-09 10:10 | 40.85223 | 111.81678 | 3534 ft | 9 kts | 146° |
| 2026-05-09 10:11 | 40.85149 | 111.81709 | 3534 ft | 12 kts | 163° |
| 2026-05-09 10:11 | 40.85064 | 111.81743 | 3534 ft | 14 kts | 163° |
| 2026-05-09 10:11 | 40.85003 | 111.81796 | 3533 ft | 10 kts | 93° |
| 2026-05-09 10:11 | 40.85026 | 111.81892 | 3533 ft | 12 kts | 72° |
| 2026-05-09 10:12 | 40.85057 | 111.82020 | 3533 ft | 17 kts | 72° |
| 2026-05-09 10:12 | 40.85096 | 111.82184 | 3533 ft | 21 kts | 73° |
| 2026-05-09 10:12 | 40.85142 | 111.82383 | 3532 ft | 24 kts | 73° |
| 2026-05-09 10:12 | 40.85193 | 111.82600 | 3533 ft | 25 kts | 72° |
| 2026-05-09 10:13 | 40.85246 | 111.82822 | 3533 ft | 25 kts | 72° |
| 2026-05-09 10:13 | 40.85299 | 111.83046 | 3533 ft | 26 kts | 73° |
| 2026-05-09 10:13 | 40.85353 | 111.83276 | 3533 ft | 26 kts | 73° |
| 2026-05-09 10:13 | 40.85407 | 111.83509 | 3533 ft | 27 kts | 73° |
| 2026-05-09 10:14 | 40.85464 | 111.83745 | 3533 ft | 27 kts | 72° |
| 2026-05-09 10:14 | 40.85520 | 111.83984 | 3533 ft | 27 kts | 73° |
| 2026-05-09 10:14 | 40.85569 | 111.84194 | 3533 ft | 18 kts | 73° |
| 2026-05-09 10:14 | 40.85599 | 111.84319 | 3533 ft | 10 kts | 72° |
| 2026-05-09 10:15 | 40.85598 | 111.84399 | 3532 ft | 10 kts | 125° |
| 2026-05-09 10:15 | 40.85523 | 111.84435 | 3529 ft | 14 kts | 164° |
| 2026-05-09 10:15 | 40.85446 | 111.84451 | 3526 ft | 9 kts | 208° |
| 2026-05-09 10:15 | 40.85432 | 111.84416 | 3526 ft | 0 kts | 256° |
| 2026-05-09 10:16 | 40.85428 | 111.84396 | 3526 ft | 8 kts | 255° |
| 2026-05-09 10:16 | 40.85341 | 111.84023 | 3526 ft | 79 kts | 253° |
| 2026-05-09 10:16 | 40.85115 | 111.83068 | 3528 ft | 137 kts | 253° |
| 2026-05-09 10:16 | 40.84788 | 111.81667 | 3637 ft | 173 kts | 255° |
| 2026-05-09 10:17 | 40.84429 | 111.80178 | 4401 ft | 168 kts | 257° |
| 2026-05-09 10:17 | 40.84074 | 111.78701 | 5034 ft | 176 kts | 259° |
| 2026-05-09 10:17 | 40.83697 | 111.77059 | 5364 ft | 198 kts | 258° |
| 2026-05-09 10:17 | 40.83274 | 111.75229 | 5901 ft | 214 kts | 258° |
| 2026-05-09 10:18 | 40.82827 | 111.73329 | 6732 ft | 219 kts | 257° |
| 2026-05-09 10:18 | 40.82373 | 111.71405 | 7611 ft | 221 kts | 257° |
| 2026-05-09 10:18 | 40.81912 | 111.69465 | 8506 ft | 223 kts | 257° |
| 2026-05-09 10:18 | 40.81320 | 111.67528 | 9181 ft | 243 kts | 239° |
| 2026-05-09 10:19 | 40.79892 | 111.66086 | 9557 ft | 282 kts | 204° |
| 2026-05-09 10:19 | 40.77857 | 111.65911 | 10104 ft | 309 kts | 169° |
| 2026-05-09 10:19 | 40.75790 | 111.67061 | 10497 ft | 338 kts | 149° |
| 2026-05-09 10:19 | 40.73828 | 111.68914 | 11075 ft | 353 kts | 142° |
| 2026-05-09 10:20 | 40.71893 | 111.70964 | 11849 ft | 360 kts | 142° |
| 2026-05-09 10:20 | 40.69887 | 111.72987 | 12685 ft | 365 kts | 145° |
| 2026-05-09 10:20 | 40.67780 | 111.74895 | 13531 ft | 370 kts | 148° |
| 2026-05-09 10:20 | 40.65583 | 111.76684 | 14294 ft | 374 kts | 151° |
| 2026-05-09 10:21 | 40.63312 | 111.78391 | 15023 ft | 378 kts | 154° |
| 2026-05-09 10:21 | 40.60871 | 111.79676 | 15730 ft | 380 kts | 165° |
| 2026-05-09 10:21 | 40.58353 | 111.80797 | 16482 ft | 384 kts | 164° |
| 2026-05-09 10:21 | 40.55819 | 111.81969 | 17204 ft | 389 kts | 163° |
| 2026-05-09 10:22 | 40.53263 | 111.83189 | 17904 ft | 394 kts | 163° |
| 2026-05-09 10:22 | 40.50679 | 111.84442 | 18559 ft | 398 kts | 163° |
| 2026-05-09 10:22 | 40.48100 | 111.85694 | 19171 ft | 403 kts | 163° |
| 2026-05-09 10:22 | 40.45451 | 111.86974 | 19783 ft | 408 kts | 163° |
| 2026-05-09 10:23 | 40.42763 | 111.88234 | 20375 ft | 411 kts | 167° |
| 2026-05-09 10:23 | 40.39973 | 111.89036 | 20949 ft | 411 kts | 178° |
| 2026-05-09 10:23 | 40.37130 | 111.89209 | 21530 ft | 409 kts | 188° |
| 2026-05-09 10:23 | 40.34301 | 111.88843 | 22145 ft | 410 kts | 192° |
| 2026-05-09 10:24 | 40.31451 | 111.88419 | 22739 ft | 414 kts | 192° |
| 2026-05-09 10:24 | 40.28571 | 111.88001 | 23303 ft | 418 kts | 192° |
| 2026-05-09 10:24 | 40.25672 | 111.87590 | 23455 ft | 419 kts | 192° |
| 2026-05-09 10:24 | 40.22825 | 111.87198 | 23480 ft | 403 kts | 192° |
| 2026-05-09 10:25 | 40.20082 | 111.86826 | 23483 ft | 392 kts | 192° |
| 2026-05-09 10:25 | 40.17379 | 111.86453 | 23485 ft | 389 kts | 192° |
| 2026-05-09 10:25 | 40.14695 | 111.86078 | 23482 ft | 388 kts | 192° |
| 2026-05-09 10:25 | 40.12013 | 111.85698 | 23485 ft | 388 kts | 192° |
| 2026-05-09 10:26 | 40.09334 | 111.85315 | 23484 ft | 387 kts | 192° |
| 2026-05-09 10:26 | 40.06656 | 111.84934 | 23483 ft | 387 kts | 192° |
| 2026-05-09 10:26 | 40.03980 | 111.84553 | 23482 ft | 387 kts | 192° |
| 2026-05-09 10:26 | 40.01339 | 111.84011 | 23488 ft | 381 kts | 201° |
| 2026-05-09 10:27 | 39.98865 | 111.82896 | 23485 ft | 373 kts | 211° |
| 2026-05-09 10:27 | 39.96635 | 111.81254 | 23482 ft | 365 kts | 222° |
| 2026-05-09 10:27 | 39.94667 | 111.79209 | 23479 ft | 361 kts | 227° |
| 2026-05-09 10:27 | 39.92744 | 111.77109 | 23481 ft | 361 kts | 227° |
| 2026-05-09 10:28 | 39.90816 | 111.75019 | 23482 ft | 361 kts | 226° |
| 2026-05-09 10:28 | 39.88885 | 111.72934 | 23484 ft | 361 kts | 226° |
| 2026-05-09 10:28 | 39.86953 | 111.70851 | 23482 ft | 361 kts | 226° |
| 2026-05-09 10:28 | 39.85023 | 111.68768 | 23477 ft | 360 kts | 226° |
| 2026-05-09 10:29 | 39.83095 | 111.66685 | 23476 ft | 360 kts | 226° |
| 2026-05-09 10:29 | 39.81169 | 111.64603 | 23474 ft | 360 kts | 226° |
| 2026-05-09 10:29 | 39.79237 | 111.62518 | 23468 ft | 360 kts | 226° |
| 2026-05-09 10:29 | 39.77335 | 111.60467 | 23466 ft | 360 kts | 226° |
| 2026-05-09 10:30 | 39.75404 | 111.58386 | 23467 ft | 360 kts | 226° |
| 2026-05-09 10:30 | 39.73473 | 111.56310 | 23467 ft | 361 kts | 226° |
| 2026-05-09 10:30 | 39.71537 | 111.54229 | 23469 ft | 361 kts | 226° |
| 2026-05-09 10:30 | 39.69604 | 111.52151 | 23473 ft | 361 kts | 226° |
| 2026-05-09 10:31 | 39.67674 | 111.50075 | 23471 ft | 361 kts | 226° |
| 2026-05-09 10:31 | 39.65742 | 111.47997 | 23469 ft | 361 kts | 226° |
| 2026-05-09 10:31 | 39.63807 | 111.45920 | 23469 ft | 361 kts | 226° |
| 2026-05-09 10:31 | 39.61875 | 111.43845 | 23468 ft | 361 kts | 226° |
| 2026-05-09 10:32 | 39.59944 | 111.41771 | 23468 ft | 360 kts | 226° |
| 2026-05-09 10:32 | 39.58010 | 111.39699 | 23465 ft | 360 kts | 226° |
| 2026-05-09 10:32 | 39.56080 | 111.37631 | 23458 ft | 361 kts | 225° |
| 2026-05-09 10:32 | 39.54144 | 111.35559 | 23460 ft | 361 kts | 225° |
| 2026-05-09 10:33 | 39.52206 | 111.33488 | 23450 ft | 361 kts | 225° |
| 2026-05-09 10:33 | 39.50270 | 111.31423 | 23451 ft | 361 kts | 225° |
| 2026-05-09 10:33 | 39.48330 | 111.29355 | 23441 ft | 361 kts | 225° |
| 2026-05-09 10:33 | 39.46386 | 111.27289 | 23439 ft | 362 kts | 225° |
| 2026-05-09 10:34 | 39.44440 | 111.25223 | 23440 ft | 362 kts | 225° |
| 2026-05-09 10:34 | 39.40548 | 111.21084 | 23443 ft | 362 kts | 225° |
| 2026-05-09 10:34 | 39.38600 | 111.19011 | 23447 ft | 362 kts | 225° |
| 2026-05-09 10:35 | 39.36652 | 111.16940 | 23446 ft | 362 kts | 225° |
| 2026-05-09 10:35 | 39.34705 | 111.14873 | 23447 ft | 362 kts | 225° |
| 2026-05-09 10:35 | 39.32758 | 111.12811 | 23451 ft | 362 kts | 225° |
| 2026-05-09 10:35 | 39.30811 | 111.10750 | 23448 ft | 362 kts | 225° |
| 2026-05-09 10:36 | 39.28861 | 111.08690 | 23446 ft | 362 kts | 225° |
| 2026-05-09 10:36 | 39.26919 | 111.06634 | 23446 ft | 361 kts | 225° |
| 2026-05-09 10:36 | 39.24974 | 111.04576 | 23447 ft | 361 kts | 225° |
| 2026-05-09 10:36 | 39.23030 | 111.02519 | 23449 ft | 361 kts | 225° |
| 2026-05-09 10:37 | 39.21085 | 111.00465 | 23445 ft | 361 kts | 225° |
| 2026-05-09 10:37 | 39.19185 | 110.98363 | 23445 ft | 357 kts | 231° |
| 2026-05-09 10:37 | 39.17680 | 110.95921 | 23446 ft | 350 kts | 243° |
| 2026-05-09 10:37 | 39.16649 | 110.93127 | 23446 ft | 343 kts | 256° |
| 2026-05-09 10:38 | 39.16140 | 110.90159 | 23443 ft | 337 kts | 268° |
| 2026-05-09 10:38 | 39.16130 | 110.87157 | 23445 ft | 334 kts | 277° |
| 2026-05-09 10:38 | 39.16288 | 110.84174 | 23441 ft | 334 kts | 276° |
| 2026-05-09 10:38 | 39.16433 | 110.81185 | 23440 ft | 334 kts | 276° |
| 2026-05-09 10:39 | 39.16572 | 110.78199 | 23441 ft | 334 kts | 276° |
| 2026-05-09 10:39 | 39.16710 | 110.75204 | 23440 ft | 335 kts | 276° |
| 2026-05-09 10:39 | 39.16847 | 110.72213 | 23439 ft | 335 kts | 276° |
| 2026-05-09 10:39 | 39.16986 | 110.69217 | 23439 ft | 335 kts | 276° |
| 2026-05-09 10:40 | 39.17125 | 110.66223 | 23439 ft | 335 kts | 276° |
| 2026-05-09 10:40 | 39.17263 | 110.63230 | 23436 ft | 335 kts | 276° |
| 2026-05-09 10:40 | 39.17402 | 110.60230 | 23437 ft | 335 kts | 276° |
| 2026-05-09 10:40 | 39.17542 | 110.57233 | 23436 ft | 335 kts | 276° |
| 2026-05-09 10:41 | 39.17682 | 110.54274 | 23439 ft | 335 kts | 276° |
| 2026-05-09 10:41 | 39.17821 | 110.51272 | 23439 ft | 335 kts | 276° |
| 2026-05-09 10:41 | 39.17959 | 110.48234 | 23438 ft | 335 kts | 276° |
| 2026-05-09 10:41 | 39.18090 | 110.45277 | 23441 ft | 335 kts | 276° |
| 2026-05-09 10:42 | 39.18222 | 110.42278 | 23452 ft | 335 kts | 276° |
| 2026-05-09 10:42 | 39.18353 | 110.39276 | 23456 ft | 335 kts | 276° |
| 2026-05-09 10:42 | 39.18486 | 110.36277 | 23439 ft | 335 kts | 276° |
| 2026-05-09 10:42 | 39.18620 | 110.33281 | 23438 ft | 335 kts | 276° |
| 2026-05-09 10:43 | 39.18754 | 110.30285 | 23434 ft | 335 kts | 276° |
| 2026-05-09 10:43 | 39.18888 | 110.27288 | 23427 ft | 335 kts | 276° |
| 2026-05-09 10:43 | 39.19020 | 110.24288 | 23441 ft | 335 kts | 276° |
| 2026-05-09 10:43 | 39.19148 | 110.21292 | 23427 ft | 335 kts | 275° |
| 2026-05-09 10:44 | 39.19272 | 110.18294 | 23433 ft | 335 kts | 276° |
| 2026-05-09 10:44 | 39.19398 | 110.15298 | 23433 ft | 335 kts | 276° |
| 2026-05-09 10:44 | 39.19536 | 110.12306 | 23427 ft | 335 kts | 276° |
| 2026-05-09 10:44 | 39.19686 | 110.09305 | 23425 ft | 334 kts | 276° |
| 2026-05-09 10:45 | 39.19835 | 110.06313 | 23427 ft | 335 kts | 276° |
| 2026-05-09 10:46 | 39.20415 | 109.94338 | 23431 ft | 335 kts | 276° |
| 2026-05-09 10:46 | 39.20556 | 109.91343 | 23434 ft | 335 kts | 276° |
| 2026-05-09 10:46 | 39.20696 | 109.88345 | 23439 ft | 335 kts | 276° |
| 2026-05-09 10:46 | 39.20835 | 109.85352 | 23435 ft | 334 kts | 276° |
| 2026-05-09 10:47 | 39.20973 | 109.82361 | 23433 ft | 334 kts | 276° |
| 2026-05-09 10:47 | 39.21110 | 109.79369 | 23436 ft | 334 kts | 276° |
| 2026-05-09 10:47 | 39.21247 | 109.76378 | 23433 ft | 334 kts | 276° |
| 2026-05-09 10:47 | 39.21382 | 109.73388 | 23437 ft | 334 kts | 276° |
| 2026-05-09 10:48 | 39.21518 | 109.70395 | 23439 ft | 334 kts | 276° |
| 2026-05-09 10:48 | 39.21654 | 109.67401 | 23433 ft | 334 kts | 276° |
| 2026-05-09 10:48 | 39.21783 | 109.64448 | 23439 ft | 334 kts | 276° |
| 2026-05-09 10:48 | 39.21912 | 109.61455 | 23440 ft | 334 kts | 276° |
| 2026-05-09 10:49 | 39.22043 | 109.58465 | 23446 ft | 334 kts | 276° |
| 2026-05-09 10:49 | 39.22009 | 109.55462 | 23447 ft | 338 kts | 263° |
| 2026-05-09 10:49 | 39.21211 | 109.52594 | 23445 ft | 346 kts | 244° |
| 2026-05-09 10:49 | 39.19619 | 109.50224 | 23443 ft | 357 kts | 223° |
| 2026-05-09 10:50 | 39.17387 | 109.48743 | 23426 ft | 369 kts | 200° |
| 2026-05-09 10:50 | 39.14857 | 109.48053 | 23429 ft | 372 kts | 195° |
| 2026-05-09 10:50 | 39.12308 | 109.47433 | 23422 ft | 373 kts | 195° |
| 2026-05-09 10:50 | 39.09754 | 109.46822 | 23420 ft | 374 kts | 195° |
| 2026-05-09 10:51 | 39.07200 | 109.46211 | 23414 ft | 374 kts | 195° |
| 2026-05-09 10:51 | 39.04639 | 109.45590 | 23416 ft | 374 kts | 195° |
| 2026-05-09 10:51 | 39.02082 | 109.44962 | 23422 ft | 374 kts | 195° |
| 2026-05-09 10:51 | 38.99527 | 109.44330 | 23415 ft | 374 kts | 195° |
| 2026-05-09 10:52 | 38.96970 | 109.43700 | 23415 ft | 374 kts | 195° |
| 2026-05-09 10:52 | 38.95280 | 109.43282 | 23417 ft | 374 kts | 195° |
| 2026-05-09 10:52 | 38.91863 | 109.42437 | 23421 ft | 374 kts | 195° |
| 2026-05-09 10:52 | 38.90170 | 109.42020 | 23420 ft | 374 kts | 195° |
| 2026-05-09 10:53 | 38.87613 | 109.41392 | 23418 ft | 374 kts | 195° |
| 2026-05-09 10:53 | 38.85059 | 109.40760 | 23418 ft | 374 kts | 195° |
| 2026-05-09 10:53 | 38.81673 | 109.39921 | 23424 ft | 374 kts | 195° |
| 2026-05-09 10:53 | 38.79123 | 109.39293 | 23421 ft | 373 kts | 195° |
| 2026-05-09 10:54 | 38.77397 | 109.38868 | 23425 ft | 373 kts | 195° |
| 2026-05-09 10:54 | 38.74846 | 109.38241 | 23419 ft | 373 kts | 195° |
| 2026-05-09 10:54 | 38.72330 | 109.37624 | 23419 ft | 373 kts | 195° |
| 2026-05-09 10:54 | 38.68920 | 109.36787 | 23420 ft | 373 kts | 196° |
| 2026-05-09 10:55 | 38.67235 | 109.36371 | 23418 ft | 373 kts | 196° |
| 2026-05-09 10:55 | 38.64692 | 109.35740 | 23419 ft | 373 kts | 196° |
| 2026-05-09 10:55 | 38.62145 | 109.35105 | 23416 ft | 373 kts | 196° |
| 2026-05-09 10:55 | 38.59598 | 109.34473 | 23411 ft | 373 kts | 196° |
| 2026-05-09 10:56 | 38.57053 | 109.33848 | 23411 ft | 373 kts | 196° |
| 2026-05-09 10:56 | 38.54507 | 109.33224 | 23409 ft | 373 kts | 196° |
| 2026-05-09 10:56 | 38.51961 | 109.32600 | 23407 ft | 373 kts | 196° |
| 2026-05-09 10:56 | 38.49412 | 109.31972 | 23402 ft | 373 kts | 196° |
| 2026-05-09 10:57 | 38.46865 | 109.31346 | 23401 ft | 373 kts | 196° |
| 2026-05-09 10:57 | 38.44316 | 109.30723 | 23399 ft | 373 kts | 196° |
| 2026-05-09 10:57 | 38.41768 | 109.30101 | 23396 ft | 373 kts | 196° |
| 2026-05-09 10:57 | 38.39217 | 109.29484 | 23392 ft | 374 kts | 195° |
| 2026-05-09 10:58 | 38.36609 | 109.29194 | 23394 ft | 378 kts | 188° |
| 2026-05-09 10:58 | 38.33979 | 109.29036 | 23390 ft | 378 kts | 188° |
| 2026-05-09 10:58 | 38.31354 | 109.28877 | 23391 ft | 378 kts | 188° |
| 2026-05-09 10:58 | 38.28722 | 109.28715 | 23388 ft | 378 kts | 188° |
| 2026-05-09 10:59 | 38.26094 | 109.28552 | 23388 ft | 378 kts | 188° |
| 2026-05-09 10:59 | 38.23464 | 109.28391 | 23383 ft | 378 kts | 188° |
| 2026-05-09 10:59 | 38.20834 | 109.28231 | 23386 ft | 379 kts | 188° |
| 2026-05-09 10:59 | 38.18202 | 109.28068 | 23386 ft | 379 kts | 188° |
| 2026-05-09 11:00 | 38.15570 | 109.27903 | 23384 ft | 379 kts | 188° |
| 2026-05-09 11:00 | 38.12933 | 109.27739 | 23386 ft | 379 kts | 188° |
| 2026-05-09 11:00 | 38.10333 | 109.27579 | 23390 ft | 379 kts | 188° |
| 2026-05-09 11:00 | 38.07695 | 109.27418 | 23387 ft | 379 kts | 189° |
| 2026-05-09 11:01 | 38.05060 | 109.27257 | 23392 ft | 380 kts | 189° |
| 2026-05-09 11:01 | 38.02419 | 109.27092 | 23389 ft | 380 kts | 189° |
| 2026-05-09 11:01 | 37.99781 | 109.26928 | 23393 ft | 380 kts | 189° |
| 2026-05-09 11:01 | 37.97141 | 109.26765 | 23391 ft | 380 kts | 189° |
| 2026-05-09 11:02 | 37.94500 | 109.26605 | 23387 ft | 380 kts | 188° |
| 2026-05-09 11:02 | 37.91860 | 109.26444 | 23393 ft | 380 kts | 189° |
| 2026-05-09 11:02 | 37.89221 | 109.26282 | 23389 ft | 380 kts | 188° |
| 2026-05-09 11:02 | 37.86583 | 109.26122 | 23399 ft | 380 kts | 189° |
| 2026-05-09 11:03 | 37.83939 | 109.25962 | 23393 ft | 381 kts | 189° |
| 2026-05-09 11:03 | 37.81293 | 109.25800 | 23397 ft | 381 kts | 189° |
| 2026-05-09 11:03 | 37.78645 | 109.25640 | 23397 ft | 381 kts | 189° |
| 2026-05-09 11:03 | 37.76003 | 109.25481 | 23408 ft | 381 kts | 188° |
| 2026-05-09 11:04 | 37.73354 | 109.25321 | 23407 ft | 381 kts | 189° |
| 2026-05-09 11:04 | 37.70710 | 109.25159 | 23416 ft | 381 kts | 189° |
| 2026-05-09 11:04 | 37.68060 | 109.24998 | 23420 ft | 381 kts | 189° |
| 2026-05-09 11:04 | 37.65418 | 109.24838 | 23418 ft | 381 kts | 189° |
| 2026-05-09 11:05 | 37.62770 | 109.24677 | 23420 ft | 381 kts | 189° |
| 2026-05-09 11:05 | 37.60124 | 109.24515 | 23423 ft | 381 kts | 189° |
| 2026-05-09 11:05 | 37.57478 | 109.24354 | 23415 ft | 381 kts | 188° |
| 2026-05-09 11:05 | 37.54827 | 109.24195 | 23419 ft | 381 kts | 188° |
| 2026-05-09 11:06 | 37.52179 | 109.24035 | 23419 ft | 381 kts | 188° |
| 2026-05-09 11:06 | 37.49534 | 109.23876 | 23412 ft | 381 kts | 188° |
| 2026-05-09 11:06 | 37.46888 | 109.23718 | 23416 ft | 381 kts | 188° |
| 2026-05-09 11:06 | 37.44239 | 109.23560 | 23419 ft | 381 kts | 188° |
| 2026-05-09 11:07 | 37.41593 | 109.23400 | 23414 ft | 381 kts | 188° |
| 2026-05-09 11:07 | 37.38948 | 109.23237 | 23414 ft | 381 kts | 188° |
| 2026-05-09 11:07 | 37.36299 | 109.23072 | 23419 ft | 381 kts | 188° |
| 2026-05-09 11:07 | 37.33685 | 109.22912 | 23419 ft | 381 kts | 188° |
| 2026-05-09 11:08 | 37.31036 | 109.22753 | 23414 ft | 381 kts | 188° |
| 2026-05-09 11:08 | 37.28387 | 109.22597 | 23412 ft | 381 kts | 188° |
| 2026-05-09 11:08 | 37.25737 | 109.22440 | 23415 ft | 381 kts | 188° |
| 2026-05-09 11:08 | 37.23083 | 109.22280 | 23415 ft | 382 kts | 188° |
| 2026-05-09 11:09 | 37.20429 | 109.22119 | 23416 ft | 381 kts | 188° |
| 2026-05-09 11:09 | 37.17781 | 109.21960 | 23414 ft | 381 kts | 188° |
| 2026-05-09 11:09 | 37.15130 | 109.21800 | 23415 ft | 381 kts | 188° |
| 2026-05-09 11:09 | 37.12474 | 109.21638 | 23418 ft | 382 kts | 188° |
| 2026-05-09 11:10 | 37.09820 | 109.21479 | 23422 ft | 382 kts | 188° |
| 2026-05-09 11:10 | 37.07167 | 109.21322 | 23422 ft | 382 kts | 188° |
| 2026-05-09 11:10 | 37.04513 | 109.21169 | 23430 ft | 381 kts | 188° |
| 2026-05-09 11:10 | 37.01863 | 109.21016 | 23426 ft | 381 kts | 188° |
| 2026-05-09 11:11 | 36.99209 | 109.20860 | 23422 ft | 381 kts | 188° |
| 2026-05-09 11:11 | 36.96561 | 109.20702 | 23422 ft | 381 kts | 188° |
| 2026-05-09 11:11 | 36.93909 | 109.20545 | 23419 ft | 381 kts | 188° |
| 2026-05-09 11:11 | 36.91258 | 109.20386 | 23418 ft | 382 kts | 188° |
| 2026-05-09 11:12 | 36.88606 | 109.20226 | 23414 ft | 382 kts | 188° |
| 2026-05-09 11:12 | 36.85950 | 109.20066 | 23414 ft | 382 kts | 188° |
| 2026-05-09 11:12 | 36.83293 | 109.19913 | 23421 ft | 383 kts | 188° |
| 2026-05-09 11:12 | 36.80631 | 109.19768 | 23417 ft | 383 kts | 188° |
| 2026-05-09 11:13 | 36.77971 | 109.19629 | 23419 ft | 383 kts | 188° |
| 2026-05-09 11:13 | 36.75307 | 109.19492 | 23419 ft | 383 kts | 188° |
| 2026-05-09 11:13 | 36.72640 | 109.19358 | 23419 ft | 384 kts | 187° |
| 2026-05-09 11:13 | 36.69975 | 109.19226 | 23418 ft | 383 kts | 187° |
| 2026-05-09 11:14 | 36.67307 | 109.19092 | 23420 ft | 383 kts | 187° |
| 2026-05-09 11:14 | 36.64641 | 109.18955 | 23419 ft | 384 kts | 188° |
| 2026-05-09 11:14 | 36.61986 | 109.18818 | 23401 ft | 380 kts | 188° |
| 2026-05-09 11:14 | 36.59345 | 109.18679 | 23397 ft | 379 kts | 188° |
| 2026-05-09 11:15 | 36.56704 | 109.18537 | 23402 ft | 380 kts | 188° |
| 2026-05-09 11:15 | 36.54062 | 109.18394 | 23402 ft | 381 kts | 188° |
| 2026-05-09 11:15 | 36.51440 | 109.18252 | 23407 ft | 382 kts | 188° |
| 2026-05-09 11:15 | 36.48782 | 109.18110 | 23410 ft | 383 kts | 188° |
| 2026-05-09 11:16 | 36.46111 | 109.17969 | 23441 ft | 387 kts | 188° |
| 2026-05-09 11:16 | 36.43414 | 109.17829 | 23451 ft | 388 kts | 188° |
| 2026-05-09 11:16 | 36.40719 | 109.17691 | 23456 ft | 387 kts | 187° |
| 2026-05-09 11:16 | 36.38026 | 109.17554 | 23465 ft | 387 kts | 188° |
| 2026-05-09 11:17 | 36.35343 | 109.17381 | 23462 ft | 386 kts | 188° |
| 2026-05-09 11:17 | 36.32660 | 109.17169 | 23464 ft | 386 kts | 189° |
| 2026-05-09 11:17 | 36.29984 | 109.16942 | 23459 ft | 385 kts | 189° |
| 2026-05-09 11:17 | 36.27307 | 109.16734 | 23457 ft | 385 kts | 189° |
| 2026-05-09 11:18 | 36.24631 | 109.16550 | 23459 ft | 386 kts | 188° |
| 2026-05-09 11:18 | 36.21952 | 109.16380 | 23459 ft | 386 kts | 188° |
| 2026-05-09 11:18 | 36.19275 | 109.16212 | 23463 ft | 385 kts | 188° |
| 2026-05-09 11:18 | 36.16594 | 109.16043 | 23463 ft | 385 kts | 188° |
| 2026-05-09 11:19 | 36.13916 | 109.15872 | 23462 ft | 385 kts | 188° |
| 2026-05-09 11:19 | 36.11238 | 109.15700 | 23459 ft | 385 kts | 188° |
| 2026-05-09 11:19 | 36.08561 | 109.15526 | 23460 ft | 385 kts | 188° |
| 2026-05-09 11:19 | 36.05884 | 109.15348 | 23457 ft | 385 kts | 188° |
| 2026-05-09 11:20 | 36.03208 | 109.15170 | 23457 ft | 386 kts | 188° |
| 2026-05-09 11:20 | 36.00525 | 109.14994 | 23459 ft | 386 kts | 188° |
| 2026-05-09 11:20 | 35.97846 | 109.14820 | 23453 ft | 386 kts | 188° |
| 2026-05-09 11:20 | 35.95165 | 109.14648 | 23450 ft | 386 kts | 188° |
| 2026-05-09 11:21 | 35.92482 | 109.14480 | 23455 ft | 386 kts | 188° |
| 2026-05-09 11:21 | 35.89796 | 109.14312 | 23453 ft | 386 kts | 188° |
| 2026-05-09 11:21 | 35.87111 | 109.14142 | 23451 ft | 386 kts | 188° |
| 2026-05-09 11:21 | 35.84457 | 109.13787 | 23449 ft | 381 kts | 198° |
| 2026-05-09 11:22 | 35.81933 | 109.12913 | 23450 ft | 375 kts | 205° |
| 2026-05-09 11:22 | 35.79456 | 109.11906 | 23445 ft | 375 kts | 205° |
| 2026-05-09 11:22 | 35.76981 | 109.10912 | 23444 ft | 375 kts | 205° |
| 2026-05-09 11:22 | 35.74495 | 109.09918 | 23449 ft | 375 kts | 205° |
| 2026-05-09 11:23 | 35.72014 | 109.08926 | 23336 ft | 373 kts | 204° |
| 2026-05-09 11:23 | 35.69592 | 109.07960 | 22926 ft | 369 kts | 204° |
| 2026-05-09 11:23 | 35.67157 | 109.06992 | 22516 ft | 366 kts | 204° |
| 2026-05-09 11:23 | 35.64738 | 109.06028 | 22110 ft | 364 kts | 204° |
| 2026-05-09 11:24 | 35.62337 | 109.05070 | 21712 ft | 362 kts | 204° |
| 2026-05-09 11:24 | 35.59952 | 109.04116 | 21307 ft | 359 kts | 203° |
| 2026-05-09 11:24 | 35.57581 | 109.03167 | 20888 ft | 358 kts | 203° |
| 2026-05-09 11:24 | 35.55219 | 109.02220 | 20529 ft | 356 kts | 202° |
| 2026-05-09 11:25 | 35.52871 | 109.01280 | 20148 ft | 355 kts | 202° |
| 2026-05-09 11:25 | 35.50527 | 109.00344 | 19781 ft | 353 kts | 202° |
| 2026-05-09 11:25 | 35.48193 | 108.99413 | 19429 ft | 352 kts | 202° |
| 2026-05-09 11:25 | 35.45875 | 108.98490 | 19081 ft | 350 kts | 201° |
| 2026-05-09 11:26 | 35.43560 | 108.97569 | 18759 ft | 348 kts | 201° |
| 2026-05-09 11:26 | 35.41258 | 108.96655 | 18432 ft | 347 kts | 201° |
| 2026-05-09 11:26 | 35.38968 | 108.95745 | 18100 ft | 345 kts | 201° |
| 2026-05-09 11:26 | 35.36690 | 108.94840 | 17736 ft | 344 kts | 201° |
| 2026-05-09 11:27 | 35.34419 | 108.93937 | 17368 ft | 343 kts | 201° |
| 2026-05-09 11:27 | 35.32154 | 108.93037 | 17020 ft | 342 kts | 201° |
| 2026-05-09 11:27 | 35.29925 | 108.92153 | 16687 ft | 341 kts | 201° |
| 2026-05-09 11:27 | 35.27647 | 108.91251 | 16351 ft | 339 kts | 201° |
| 2026-05-09 11:28 | 35.25432 | 108.90375 | 16026 ft | 338 kts | 200° |
| 2026-05-09 11:28 | 35.23193 | 108.89491 | 15706 ft | 337 kts | 200° |
| 2026-05-09 11:28 | 35.20961 | 108.88614 | 15389 ft | 336 kts | 200° |
| 2026-05-09 11:28 | 35.18734 | 108.87739 | 15083 ft | 336 kts | 200° |
| 2026-05-09 11:29 | 35.16515 | 108.86863 | 14793 ft | 335 kts | 200° |
| 2026-05-09 11:29 | 35.14301 | 108.85987 | 14479 ft | 334 kts | 200° |
| 2026-05-09 11:29 | 35.12094 | 108.85115 | 14170 ft | 333 kts | 200° |
| 2026-05-09 11:29 | 35.09888 | 108.84246 | 13869 ft | 332 kts | 200° |
| 2026-05-09 11:30 | 35.07689 | 108.83379 | 13538 ft | 332 kts | 200° |
| 2026-05-09 11:30 | 35.05485 | 108.82584 | 13207 ft | 332 kts | 192° |
| 2026-05-09 11:30 | 35.03185 | 108.82541 | 12892 ft | 332 kts | 170° |
| 2026-05-09 11:30 | 35.00995 | 108.83393 | 12568 ft | 330 kts | 157° |
| 2026-05-09 11:31 | 34.98865 | 108.84434 | 12249 ft | 329 kts | 157° |
| 2026-05-09 11:31 | 34.96750 | 108.85479 | 11943 ft | 327 kts | 157° |
| 2026-05-09 11:31 | 34.94643 | 108.86520 | 11634 ft | 326 kts | 157° |
| 2026-05-09 11:31 | 34.92548 | 108.87555 | 11325 ft | 324 kts | 157° |
| 2026-05-09 11:32 | 34.90464 | 108.88581 | 10990 ft | 323 kts | 157° |
| 2026-05-09 11:32 | 34.89084 | 108.89260 | 10770 ft | 322 kts | 157° |
| 2026-05-09 11:32 | 34.88538 | 108.89530 | 10720 ft | 320 kts | 157° |
| 2026-05-09 11:32 | 34.86479 | 108.90552 | 10381 ft | 319 kts | 158° |
| 2026-05-09 11:33 | 34.84428 | 108.91556 | 10022 ft | 317 kts | 158° |
| 2026-05-09 11:33 | 34.82387 | 108.92551 | 9595 ft | 315 kts | 158° |
| 2026-05-09 11:33 | 34.78357 | 108.94513 | 8748 ft | 309 kts | 158° |
| 2026-05-09 11:34 | 34.76372 | 108.95482 | 8336 ft | 305 kts | 158° |
| 2026-05-09 11:34 | 34.74436 | 108.96425 | 7939 ft | 302 kts | 159° |
| 2026-05-09 11:34 | 34.72500 | 108.97367 | 7537 ft | 298 kts | 159° |
| 2026-05-09 11:34 | 34.70680 | 108.98255 | 7324 ft | 288 kts | 159° |
| 2026-05-09 11:35 | 34.68869 | 108.99140 | 7201 ft | 273 kts | 159° |
| 2026-05-09 11:35 | 34.67088 | 108.99847 | 6812 ft | 270 kts | 172° |
| 2026-05-09 11:35 | 34.65265 | 108.99889 | 6553 ft | 256 kts | 190° |
| 2026-05-09 11:35 | 34.63600 | 108.99325 | 6326 ft | 243 kts | 206° |
| 2026-05-09 11:36 | 34.62190 | 108.98284 | 6065 ft | 234 kts | 221° |
| 2026-05-09 11:36 | 34.61076 | 108.96902 | 5784 ft | 227 kts | 230° |
| 2026-05-09 11:36 | 34.60049 | 108.95476 | 5495 ft | 221 kts | 230° |
| 2026-05-09 11:36 | 34.59051 | 108.94091 | 5216 ft | 216 kts | 230° |
| 2026-05-09 11:37 | 34.58074 | 108.92735 | 4950 ft | 211 kts | 230° |
| 2026-05-09 11:37 | 34.57118 | 108.91408 | 4689 ft | 206 kts | 230° |
| 2026-05-09 11:37 | 34.56184 | 108.90114 | 4427 ft | 202 kts | 230° |
| 2026-05-09 11:37 | 34.55274 | 108.88853 | 4164 ft | 195 kts | 230° |
| 2026-05-09 11:38 | 34.54399 | 108.87642 | 3915 ft | 187 kts | 230° |
| 2026-05-09 11:38 | 34.53558 | 108.86476 | 3691 ft | 181 kts | 230° |
| 2026-05-09 11:38 | 34.52745 | 108.85351 | 3459 ft | 174 kts | 230° |
| 2026-05-09 11:38 | 34.51964 | 108.84270 | 3256 ft | 163 kts | 230° |
| 2026-05-09 11:39 | 34.51488 | 108.83612 | 3120 ft | 151 kts | 230° |
| 2026-05-09 11:39 | 34.50850 | 108.82729 | 2929 ft | 137 kts | 230° |
| 2026-05-09 11:39 | 34.50238 | 108.81883 | 2766 ft | 131 kts | 229° |
| 2026-05-09 11:40 | 34.49056 | 108.80248 | 2438 ft | 129 kts | 229° |
| 2026-05-09 11:40 | 34.48456 | 108.79418 | 2263 ft | 132 kts | 230° |
| 2026-05-09 11:40 | 34.47849 | 108.78578 | 2060 ft | 134 kts | 230° |
| 2026-05-09 11:40 | 34.47236 | 108.77729 | 1866 ft | 134 kts | 230° |
| 2026-05-09 11:41 | 34.46622 | 108.76874 | 1640 ft | 135 kts | 230° |
| 2026-05-09 11:41 | 34.46026 | 108.76061 | 1521 ft | 116 kts | 228° |
| 2026-05-09 11:41 | 34.45605 | 108.75480 | 1523 ft | 67 kts | 229° |
| 2026-05-09 11:41 | 34.45407 | 108.75208 | 1522 ft | 26 kts | 226° |
| 2026-05-09 11:42 | 34.45268 | 108.75117 | 1520 ft | 17 kts | 201° |
| 2026-05-09 11:42 | 34.45191 | 108.75081 | 1521 ft | 10 kts | 200° |
| 2026-05-09 11:42 | 34.45156 | 108.75072 | 1521 ft | 6 kts | 169° |
| 2026-05-09 11:42 | 34.45134 | 108.75143 | 1521 ft | 8 kts | 82° |
| 2026-05-09 11:43 | 34.45159 | 108.75181 | 1521 ft | 10 kts | 47° |
| 2026-05-09 11:43 | 34.45215 | 108.75260 | 1518 ft | 8 kts | 56° |
| 2026-05-09 11:43 | 34.45226 | 108.75304 | 1521 ft | 8 kts | 88° |
| 2026-05-09 11:43 | 34.45189 | 108.75362 | 1521 ft | 10 kts | 140° |
| 2026-05-09 11:44 | 34.45131 | 108.75421 | 1519 ft | 11 kts | 139° |
| 2026-05-09 11:44 | 34.45067 | 108.75489 | 1521 ft | 13 kts | 139° |
| 2026-05-09 11:44 | 34.44969 | 108.75594 | 1520 ft | 15 kts | 139° |
| 2026-05-09 11:44 | 34.44915 | 108.75651 | 1521 ft | 12 kts | 139° |
| 2026-05-09 11:45 | 34.44846 | 108.75720 | 1518 ft | 13 kts | 141° |
| 2026-05-09 11:45 | 34.44770 | 108.75798 | 1519 ft | 15 kts | 139° |
| 2026-05-09 11:45 | 34.44703 | 108.75867 | 1518 ft | 12 kts | 138° |
| 2026-05-09 11:45 | 34.44638 | 108.75888 | 1521 ft | 11 kts | 205° |
| 2026-05-09 11:46 | 34.44610 | 108.75842 | 1521 ft | 6 kts | 253° |
| 2026-05-09 11:46 | 34.44636 | 108.75796 | 1521 ft | 8 kts | 319° |
| 2026-05-09 11:46 | 34.44656 | 108.75776 | 1520 ft | 0 kts | 319° |